createdAt,value
2023-01-09T00:01:48.742Z,98306.81
2023-01-09T00:04:18.546Z,98306.81
2023-01-09T00:06:54.222Z,98304.28
2023-01-09T00:09:24.771Z,98308.69
2023-01-09T00:11:55.135Z,98311.34
2023-01-09T00:14:27.354Z,98320.06
2023-01-09T00:16:58.103Z,98308.81
2023-01-09T00:19:27.755Z,98303.91
2023-01-09T00:21:57.356Z,98307.78
2023-01-09T00:24:26.934Z,98314.06
2023-01-09T00:26:56.523Z,98309.00
2023-01-09T00:29:28.765Z,98311.25
2023-01-09T00:31:58.413Z,98310.69
2023-01-09T00:34:29.461Z,98315.38
2023-01-09T00:36:59.041Z,98311.34
2023-01-09T00:39:28.631Z,98318.53
2023-01-09T00:41:58.892Z,98324.88
2023-01-09T00:44:33.053Z,98318.00
2023-01-09T00:47:03.477Z,98319.75
2023-01-09T00:49:35.825Z,98319.97
2023-01-09T00:52:06.262Z,98321.91
2023-01-09T00:54:35.912Z,98323.91
2023-01-09T00:57:05.687Z,98322.28
2023-01-09T00:59:40.678Z,98324.06
2023-01-09T01:02:11.131Z,98325.66
2023-01-09T01:04:55.931Z,98344.84
2023-01-09T01:07:38.096Z,98340.41
2023-01-09T01:10:10.441Z,98332.53
2023-01-09T01:12:46.251Z,98343.91
2023-01-09T01:15:19.687Z,98350.94
2023-01-09T01:17:49.967Z,98349.22
2023-01-09T01:20:22.147Z,98355.53
2023-01-09T01:22:54.620Z,98354.78
2023-01-09T01:25:24.520Z,98350.63
2023-01-09T01:27:54.283Z,98356.16
2023-01-09T01:30:28.096Z,98351.16
2023-01-09T01:32:57.842Z,98361.84
2023-01-09T01:35:27.619Z,98352.28
2023-01-09T01:37:57.276Z,98348.97
2023-01-09T01:40:27.980Z,98350.00
2023-01-09T01:42:58.757Z,98352.72
2023-01-09T01:45:33.284Z,98355.16
2023-01-09T01:48:05.501Z,98343.56
2023-01-09T01:50:39.004Z,98358.31
2023-01-09T01:53:12.097Z,98363.47
2023-01-09T01:55:43.916Z,98361.50
2023-01-09T01:58:17.171Z,98359.63
2023-01-09T02:00:50.533Z,98370.91
2023-01-09T02:03:22.272Z,98366.41
2023-01-09T02:05:52.179Z,98369.78
2023-01-09T02:08:21.856Z,98373.16
2023-01-09T02:10:52.492Z,98381.81
2023-01-09T02:13:22.677Z,98390.44
2023-01-09T02:16:04.312Z,98388.59
2023-01-09T02:18:46.886Z,98390.25
2023-01-09T02:21:24.529Z,98389.44
2023-01-09T02:24:13.114Z,98381.44
2023-01-09T02:27:03.204Z,98382.28
2023-01-09T02:30:11.894Z,98381.34
2023-01-09T02:32:56.810Z,98372.63
2023-01-09T02:35:34.739Z,98387.47
2023-01-09T02:38:09.553Z,98390.09
2023-01-09T02:40:44.670Z,98384.84
2023-01-09T02:43:15.220Z,98383.97
2023-01-09T02:45:44.828Z,98384.84
2023-01-09T02:48:17.134Z,98391.78
2023-01-09T02:50:51.569Z,98395.19
2023-01-09T02:53:42.761Z,98404.66
2023-01-09T02:56:23.584Z,98403.66
2023-01-09T02:59:06.299Z,98398.19
2023-01-09T03:01:44.884Z,98401.56
2023-01-09T03:04:21.226Z,98397.09
2023-01-09T03:06:56.639Z,98392.56
2023-01-09T03:09:30.256Z,98398.59
2023-01-09T03:12:04.522Z,98399.34
2023-01-09T03:14:35.699Z,98407.06
2023-01-09T03:17:08.583Z,98411.34
2023-01-09T03:19:41.061Z,98419.94
2023-01-09T03:22:10.923Z,98421.72
2023-01-09T03:24:40.874Z,98424.25
2023-01-09T03:27:11.535Z,98429.53
2023-01-09T03:29:41.090Z,98439.00
2023-01-09T03:32:10.750Z,98447.84
2023-01-09T03:34:42.934Z,98439.94
2023-01-09T03:37:12.616Z,98444.28
2023-01-09T03:39:43.390Z,98445.13
2023-01-09T03:42:13.004Z,98453.09
2023-01-09T03:44:42.578Z,98446.13
2023-01-09T03:47:12.169Z,98444.44
2023-01-09T03:49:44.772Z,98455.06
2023-01-09T03:52:14.395Z,98448.03
2023-01-09T03:54:44.024Z,98451.41
2023-01-09T03:57:13.615Z,98453.09
2023-01-09T03:59:43.222Z,98449.69
2023-01-09T04:02:13.023Z,98444.72
2023-01-09T04:04:45.268Z,98446.13
2023-01-09T04:07:14.864Z,98452.00
2023-01-09T04:09:44.442Z,98441.31
2023-01-09T04:12:14.432Z,98451.97
2023-01-09T04:14:44.029Z,98458.91
2023-01-09T04:17:13.633Z,98467.63
2023-01-09T04:19:45.838Z,98460.50
2023-01-09T04:22:15.434Z,98460.25
2023-01-09T04:24:45.023Z,98467.88
2023-01-09T04:27:14.761Z,98462.34
2023-01-09T04:29:44.357Z,98471.63
2023-01-09T04:32:13.967Z,98466.88
2023-01-09T04:34:46.127Z,98470.75
2023-01-09T04:37:15.831Z,98481.63
2023-01-09T04:39:46.102Z,98481.19
2023-01-09T04:42:16.018Z,98479.88
2023-01-09T04:44:45.622Z,98487.22
2023-01-09T04:47:16.240Z,98490.97
2023-01-09T04:49:48.406Z,98489.50
2023-01-09T04:52:18.005Z,98492.38
2023-01-09T04:54:47.600Z,98490.81
2023-01-09T04:57:17.233Z,98496.16
2023-01-09T04:59:46.882Z,98504.09
2023-01-09T05:02:16.567Z,98499.78
2023-01-09T05:04:48.741Z,98495.22
2023-01-09T05:07:18.359Z,98501.78
2023-01-09T05:09:47.939Z,98503.88
2023-01-09T05:12:17.580Z,98501.47
2023-01-09T05:14:47.197Z,98498.22
2023-01-09T05:17:16.811Z,98507.16
2023-01-09T05:19:49.146Z,98495.09
2023-01-09T05:22:18.793Z,98499.69
2023-01-09T05:24:48.371Z,98505.22
2023-01-09T05:27:18.021Z,98510.81
2023-01-09T05:29:47.613Z,98508.63
2023-01-09T05:32:17.191Z,98516.09
2023-01-09T05:34:49.365Z,98514.81
2023-01-09T05:37:18.969Z,98519.75
2023-01-09T05:39:48.542Z,98524.66
2023-01-09T05:42:18.133Z,98517.38
2023-01-09T05:44:47.723Z,98521.41
2023-01-09T05:47:17.368Z,98523.00
2023-01-09T05:49:49.542Z,98521.84
2023-01-09T05:52:19.143Z,98528.63
2023-01-09T05:54:48.708Z,98527.50
2023-01-09T05:57:18.466Z,98539.56
2023-01-09T05:59:48.068Z,98524.53
2023-01-09T06:02:18.018Z,98525.34
2023-01-09T06:04:50.271Z,98525.44
2023-01-09T06:07:22.755Z,98521.16
2023-01-09T06:09:52.970Z,98529.03
2023-01-09T06:12:22.616Z,98531.56
2023-01-09T06:14:52.191Z,98525.31
2023-01-09T06:17:21.812Z,98526.81
2023-01-09T06:19:54.158Z,98527.47
2023-01-09T06:22:23.771Z,98530.88
2023-01-09T06:24:53.366Z,98532.50
2023-01-09T06:27:22.969Z,98539.38
2023-01-09T06:29:52.817Z,98540.94
2023-01-09T06:32:22.558Z,98533.06
2023-01-09T06:34:54.743Z,98539.09
2023-01-09T06:37:24.326Z,98538.91
2023-01-09T06:39:54.219Z,98530.94
2023-01-09T06:42:24.708Z,98547.47
2023-01-09T06:44:54.269Z,98551.88
2023-01-09T06:47:24.276Z,98549.19
2023-01-09T06:49:57.612Z,98545.59
2023-01-09T06:52:27.210Z,98556.88
2023-01-09T06:54:56.810Z,98541.00
2023-01-09T06:57:26.390Z,98536.59
2023-01-09T06:59:56.013Z,98542.72
2023-01-09T07:02:25.626Z,98539.13
2023-01-09T07:04:57.788Z,98549.66
2023-01-09T07:07:27.373Z,98542.53
2023-01-09T07:09:56.965Z,98539.91
2023-01-09T07:12:26.551Z,98537.09
2023-01-09T07:14:57.622Z,98534.38
2023-01-09T07:17:27.383Z,98539.63
2023-01-09T07:19:59.960Z,98536.06
2023-01-09T07:22:29.777Z,98543.03
2023-01-09T07:24:59.353Z,98537.59
2023-01-09T07:27:29.114Z,98544.53
2023-01-09T07:29:58.855Z,98552.16
2023-01-09T07:32:28.469Z,98558.09
2023-01-09T07:35:00.635Z,98548.31
2023-01-09T07:37:30.215Z,98543.94
2023-01-09T07:39:59.772Z,98545.53
2023-01-09T07:42:29.401Z,98550.69
2023-01-09T07:44:58.973Z,98545.44
2023-01-09T07:47:28.568Z,98544.66
2023-01-09T07:50:00.763Z,98556.16
2023-01-09T07:52:30.744Z,98552.00
2023-01-09T07:55:00.385Z,98554.78
2023-01-09T07:57:30.666Z,98559.31
2023-01-09T08:00:03.379Z,98550.66
2023-01-09T08:02:41.418Z,98557.69
2023-01-09T08:05:15.875Z,98563.16
2023-01-09T08:07:45.890Z,98561.34
2023-01-09T08:10:15.762Z,98560.59
2023-01-09T08:12:46.227Z,98579.94
2023-01-09T08:15:15.876Z,98577.31
2023-01-09T08:17:46.795Z,98573.91
2023-01-09T08:20:20.165Z,98577.50
2023-01-09T08:22:54.443Z,98579.34
2023-01-09T08:25:24.138Z,98585.63
2023-01-09T08:27:53.759Z,98586.47
2023-01-09T08:30:23.581Z,98590.06
2023-01-09T08:32:54.129Z,98585.63
2023-01-09T08:35:26.385Z,98589.19
2023-01-09T08:37:56.052Z,98586.56
2023-01-09T08:40:25.785Z,98591.75
2023-01-09T08:43:07.835Z,98586.31
2023-01-09T08:45:49.915Z,98592.25
2023-01-09T08:48:19.637Z,98585.97
2023-01-09T08:50:52.508Z,98589.38
2023-01-09T08:53:24.644Z,98594.25
2023-01-09T08:55:54.226Z,98592.22
2023-01-09T08:58:23.803Z,98588.47
2023-01-09T09:00:53.421Z,98594.50
2023-01-09T09:03:23.008Z,98595.06
2023-01-09T09:05:55.191Z,98604.31
2023-01-09T09:08:24.749Z,98606.25
2023-01-09T09:10:54.359Z,98608.88
2023-01-09T09:13:24.021Z,98611.00
2023-01-09T09:15:53.708Z,98609.69
2023-01-09T09:18:23.291Z,98608.44
2023-01-09T09:20:55.463Z,98618.84
2023-01-09T09:23:25.376Z,98609.91
2023-01-09T09:25:54.978Z,98612.34
2023-01-09T09:28:24.575Z,98612.81
2023-01-09T09:30:54.231Z,98614.81
2023-01-09T09:33:23.831Z,98615.19
2023-01-09T09:35:55.994Z,98623.63
2023-01-09T09:38:25.670Z,98627.88
2023-01-09T09:41:31.661Z,98635.59
2023-01-09T09:44:27.139Z,98644.91
2023-01-09T09:47:01.610Z,98644.34
2023-01-09T09:49:34.429Z,98654.13
2023-01-09T09:52:15.053Z,98662.34
2023-01-09T09:54:47.741Z,98660.72
2023-01-09T09:57:20.183Z,98658.84
2023-01-09T09:59:51.597Z,98660.44
2023-01-09T10:02:30.059Z,98660.44
2023-01-09T10:05:02.950Z,98670.88
2023-01-09T10:07:41.908Z,98675.13
2023-01-09T10:10:18.852Z,98669.75
2023-01-09T10:12:55.167Z,98676.53
2023-01-09T10:15:41.307Z,98679.84
2023-01-09T10:18:19.334Z,98678.81
2023-01-09T10:20:57.160Z,98678.63
2023-01-09T10:23:48.067Z,98682.03
2023-01-09T10:26:24.501Z,98681.16
2023-01-09T10:29:06.816Z,98681.94
2023-01-09T10:31:43.481Z,98676.47
2023-01-09T10:34:20.239Z,98683.53
2023-01-09T10:37:08.690Z,98686.06
2023-01-09T10:39:43.970Z,98679.09
2023-01-09T10:42:19.386Z,98685.31
2023-01-09T10:44:53.815Z,98691.34
2023-01-09T10:47:28.182Z,98690.31
2023-01-09T10:49:58.602Z,98691.81
2023-01-09T10:52:32.908Z,98682.84
2023-01-09T10:55:15.778Z,98689.00
2023-01-09T10:57:46.829Z,98697.66
2023-01-09T11:00:31.181Z,98692.28
2023-01-09T11:03:00.923Z,98695.88
2023-01-09T11:05:34.060Z,98695.00
2023-01-09T11:08:09.415Z,98691.44
2023-01-09T11:10:53.010Z,98694.66
2023-01-09T11:13:24.330Z,98694.44
2023-01-09T11:16:09.311Z,98684.56
2023-01-09T11:18:41.882Z,98694.09
2023-01-09T11:21:30.701Z,98703.59
2023-01-09T11:24:27.807Z,98700.88
2023-01-09T11:27:24.352Z,98690.41
2023-01-09T11:30:27.773Z,98702.72
2023-01-09T11:32:58.416Z,98702.00
2023-01-09T11:35:34.141Z,98709.91
2023-01-09T11:38:10.447Z,98712.25
2023-01-09T11:40:50.928Z,98719.69
2023-01-09T11:43:32.943Z,98719.13
2023-01-09T11:46:05.700Z,98703.41
2023-01-09T11:48:38.606Z,98713.28
2023-01-09T11:51:20.252Z,98711.81
2023-01-09T11:54:04.392Z,98726.53
2023-01-09T11:56:34.016Z,98714.00
2023-01-09T11:59:11.982Z,98719.81
2023-01-09T12:02:13.358Z,98716.03
2023-01-09T12:04:45.833Z,98726.41
2023-01-09T12:07:48.199Z,98723.75
2023-01-09T12:10:50.458Z,98720.88
2023-01-09T12:13:30.633Z,98730.41
2023-01-09T12:16:09.691Z,98731.09
2023-01-09T12:18:51.407Z,98731.59
2023-01-09T12:21:33.804Z,98748.94
2023-01-09T12:24:20.309Z,98745.88
2023-01-09T12:26:55.660Z,98747.94
2023-01-09T12:29:37.972Z,98748.16
2023-01-09T12:32:20.034Z,98752.59
2023-01-09T12:34:59.185Z,98744.56
2023-01-09T12:38:02.550Z,98756.91
2023-01-09T12:40:44.264Z,98758.69
2023-01-09T12:43:20.444Z,98756.16
2023-01-09T12:46:03.193Z,98758.91
2023-01-09T12:48:49.565Z,98757.94
2023-01-09T12:51:34.158Z,98755.38
2023-01-09T12:54:07.919Z,98753.78
2023-01-09T12:56:41.046Z,98759.94
2023-01-09T12:59:30.207Z,98765.09
2023-01-09T13:02:05.800Z,98772.63
2023-01-09T13:04:41.035Z,98768.72
2023-01-09T13:07:17.276Z,98786.06
2023-01-09T13:09:51.793Z,98777.19
2023-01-09T13:12:23.107Z,98784.38
2023-01-09T13:14:56.720Z,98790.75
2023-01-09T13:17:31.045Z,98801.38
2023-01-09T13:20:03.255Z,98799.78
2023-01-09T13:22:32.966Z,98804.13
2023-01-09T13:25:21.354Z,98809.31
2023-01-09T13:27:56.528Z,98806.00
2023-01-09T13:30:39.003Z,98814.84
2023-01-09T13:33:17.639Z,98813.81
2023-01-09T13:35:55.016Z,98817.91
2023-01-09T13:38:26.699Z,98826.28
2023-01-09T13:41:25.611Z,98832.91
2023-01-09T13:43:57.056Z,98838.94
2023-01-09T13:46:28.378Z,98843.38
2023-01-09T13:48:57.970Z,98848.16
2023-01-09T13:51:59.772Z,98849.56
2023-01-09T13:54:59.527Z,98858.75
2023-01-09T13:57:31.179Z,98864.31
2023-01-09T14:00:02.486Z,98862.81
2023-01-09T14:02:59.627Z,98874.47
2023-01-09T14:06:05.461Z,98875.50
2023-01-09T14:08:37.729Z,98880.78
2023-01-09T14:11:08.007Z,98878.06
2023-01-09T14:13:42.307Z,98889.44
2023-01-09T14:16:20.784Z,98893.97
2023-01-09T14:18:53.873Z,98894.06
2023-01-09T14:21:23.531Z,98905.53
2023-01-09T14:24:04.455Z,98902.06
2023-01-09T14:26:46.560Z,98904.88
2023-01-09T14:29:47.447Z,98912.97
2023-01-09T14:32:45.513Z,98928.38
2023-01-09T14:35:28.572Z,98930.41
2023-01-09T14:38:08.447Z,98936.06
2023-01-09T14:40:40.630Z,98942.53
2023-01-09T14:43:19.666Z,98949.84
2023-01-09T14:45:50.513Z,98950.94
2023-01-09T14:48:23.046Z,98951.19
2023-01-09T14:50:55.835Z,98955.78
2023-01-09T14:53:27.152Z,98964.91
2023-01-09T14:56:00.532Z,98971.19
2023-01-09T14:58:31.839Z,98981.81
2023-01-09T15:01:04.441Z,98987.16
2023-01-09T15:03:36.926Z,99001.19
2023-01-09T15:06:07.255Z,99007.38
2023-01-09T15:08:36.924Z,99013.53
2023-01-09T15:11:09.157Z,99019.81
2023-01-09T15:13:40.495Z,99024.28
2023-01-09T15:16:19.703Z,99031.50
2023-01-09T15:18:51.717Z,99042.13
2023-01-09T15:21:22.795Z,99047.47
2023-01-09T15:23:52.493Z,99046.63
2023-01-09T15:26:30.557Z,99053.63
2023-01-09T15:29:04.431Z,99054.53
2023-01-09T15:31:34.170Z,99065.06
2023-01-09T15:34:06.666Z,99072.97
2023-01-09T15:36:36.320Z,99073.06
2023-01-09T15:39:09.270Z,99079.16
2023-01-09T15:41:53.954Z,99080.09
2023-01-09T15:44:26.835Z,99076.72
2023-01-09T15:46:59.769Z,99081.97
2023-01-09T15:49:29.589Z,99090.81
2023-01-09T15:51:59.241Z,99092.59
2023-01-09T15:54:31.854Z,99094.38
2023-01-09T15:57:35.817Z,99099.63
2023-01-09T16:00:41.584Z,99107.44
2023-01-09T16:03:20.278Z,99118.00
2023-01-09T16:05:52.893Z,99118.06
2023-01-09T16:08:25.199Z,99121.72
2023-01-09T16:10:56.545Z,99126.38
2023-01-09T16:13:30.594Z,99130.88
2023-01-09T16:16:01.020Z,99139.78
2023-01-09T16:18:33.067Z,99147.00
2023-01-09T16:21:27.775Z,99145.38
2023-01-09T16:23:59.258Z,99154.44
2023-01-09T16:26:30.031Z,99152.00
2023-01-09T16:29:35.362Z,99166.97
2023-01-09T16:32:07.256Z,99173.25
2023-01-09T16:34:38.696Z,99175.88
2023-01-09T16:37:08.900Z,99178.50
2023-01-09T16:39:38.739Z,99188.13
2023-01-09T16:42:23.853Z,99185.56
2023-01-09T16:44:56.019Z,99197.94
2023-01-09T16:47:25.679Z,99193.59
2023-01-09T16:49:55.210Z,99200.81
2023-01-09T16:52:24.773Z,99210.69
2023-01-09T16:54:54.318Z,99213.75
2023-01-09T16:57:23.945Z,99207.09
2023-01-09T17:00:00.155Z,99215.34
2023-01-09T17:02:30.036Z,99212.16
2023-01-09T17:04:59.752Z,99219.44
2023-01-09T17:07:31.170Z,99223.16
2023-01-09T17:10:01.162Z,99226.78
2023-01-09T17:12:30.726Z,99233.06
2023-01-09T17:15:02.885Z,99241.81
2023-01-09T17:17:32.444Z,99231.38
2023-01-09T17:20:02.250Z,99227.00
2023-01-09T17:22:31.790Z,99234.97
2023-01-09T17:25:13.797Z,99235.91
2023-01-09T17:27:55.861Z,99236.78
2023-01-09T17:30:28.005Z,99241.00
2023-01-09T17:32:57.575Z,99247.91
2023-01-09T17:35:27.131Z,99248.84
2023-01-09T17:37:56.691Z,99254.97
2023-01-09T17:40:26.356Z,99255.03
2023-01-09T17:42:55.910Z,99264.69
2023-01-09T17:45:28.102Z,99268.19
2023-01-09T17:47:57.750Z,99284.81
2023-01-09T17:50:31.200Z,99276.16
2023-01-09T17:53:00.801Z,99289.22
2023-01-09T17:55:30.357Z,99290.22
2023-01-09T17:57:59.946Z,99300.75
2023-01-09T18:00:36.768Z,99307.72
2023-01-09T18:03:07.866Z,99305.03
2023-01-09T18:05:37.941Z,99313.69
2023-01-09T18:08:09.922Z,99309.22
2023-01-09T18:10:40.505Z,99321.47
2023-01-09T18:13:11.000Z,99329.28
2023-01-09T18:15:44.621Z,99331.91
2023-01-09T18:18:16.221Z,99336.19
2023-01-09T18:20:47.174Z,99335.22
2023-01-09T18:23:17.255Z,99342.28
2023-01-09T18:25:47.383Z,99353.66
2023-01-09T18:28:18.751Z,99360.63
2023-01-09T18:30:53.031Z,99365.88
2023-01-09T18:33:23.443Z,99368.53
2023-01-09T18:35:53.004Z,99373.72
2023-01-09T18:38:22.596Z,99374.50
2023-01-09T18:40:52.165Z,99378.06
2023-01-09T18:43:21.734Z,99385.97
2023-01-09T18:45:54.384Z,99386.78
2023-01-09T18:48:23.973Z,99393.84
2023-01-09T18:50:53.928Z,99391.22
2023-01-09T18:53:23.604Z,99398.34
2023-01-09T18:55:53.188Z,99399.31
2023-01-09T18:58:22.791Z,99411.59
2023-01-09T19:00:57.162Z,99425.69
2023-01-09T19:03:26.813Z,99423.00
2023-01-09T19:05:56.788Z,99437.84
2023-01-09T19:08:26.337Z,99424.75
2023-01-09T19:10:56.162Z,99427.47
2023-01-09T19:13:26.642Z,99427.53
2023-01-09T19:15:59.521Z,99439.88
2023-01-09T19:18:30.737Z,99448.72
2023-01-09T19:21:00.332Z,99450.53
2023-01-09T19:23:30.373Z,99453.31
2023-01-09T19:25:59.936Z,99456.00
2023-01-09T19:28:29.489Z,99458.78
2023-01-09T19:31:01.672Z,99456.16
2023-01-09T19:33:31.267Z,99461.41
2023-01-09T19:36:00.885Z,99468.34
2023-01-09T19:38:30.502Z,99472.63
2023-01-09T19:41:09.103Z,99473.50
2023-01-09T19:43:40.491Z,99483.28
2023-01-09T19:46:14.860Z,99484.34
2023-01-09T19:48:44.884Z,99485.31
2023-01-09T19:51:16.116Z,99489.00
2023-01-09T19:53:46.031Z,99502.38
2023-01-09T19:56:17.386Z,99507.06
2023-01-09T19:58:52.326Z,99512.56
2023-01-09T20:01:28.234Z,99518.78
2023-01-09T20:04:02.842Z,99516.34
2023-01-09T20:06:32.686Z,99523.44
2023-01-09T20:09:04.887Z,99530.47
2023-01-09T20:11:35.344Z,99533.94
2023-01-09T20:14:04.916Z,99542.72
2023-01-09T20:16:37.520Z,99547.84
2023-01-09T20:19:08.681Z,99545.97
2023-01-09T20:21:38.770Z,99560.72
2023-01-09T20:24:09.661Z,99559.75
2023-01-09T20:26:40.621Z,99563.19
2023-01-09T20:29:11.079Z,99566.53
2023-01-09T20:31:43.706Z,99564.66
2023-01-09T20:34:14.644Z,99580.38
2023-01-09T20:36:44.265Z,99581.19
2023-01-09T20:39:14.648Z,99593.44
2023-01-09T20:41:44.271Z,99595.25
2023-01-09T20:44:16.165Z,99600.44
2023-01-09T20:46:52.009Z,99605.63
2023-01-09T20:49:21.944Z,99610.81
2023-01-09T20:51:53.534Z,99617.81
2023-01-09T20:54:24.303Z,99616.09
2023-01-09T20:56:54.058Z,99629.22
2023-01-09T20:59:23.651Z,99641.41
2023-01-09T21:01:55.822Z,99643.97
2023-01-09T21:04:25.469Z,99647.56
2023-01-09T21:06:55.006Z,99648.53
2023-01-09T21:09:25.332Z,99659.09
2023-01-09T21:11:54.865Z,99665.28
2023-01-09T21:14:24.434Z,99668.81
2023-01-09T21:16:56.621Z,99687.22
2023-01-09T21:19:26.322Z,99690.72
2023-01-09T21:21:55.859Z,99697.69
2023-01-09T21:24:25.431Z,99694.19
2023-01-09T21:26:54.981Z,99695.00
2023-01-09T21:29:24.546Z,99708.13
2023-01-09T21:31:57.210Z,99714.28
2023-01-09T21:34:26.846Z,99720.44
2023-01-09T21:36:56.491Z,99719.53
2023-01-09T21:39:26.192Z,99730.91
2023-01-09T21:42:08.744Z,99731.78
2023-01-09T21:44:51.415Z,99733.47
2023-01-09T21:47:24.005Z,99735.25
2023-01-09T21:49:53.856Z,99734.34
2023-01-09T21:52:23.537Z,99736.97
2023-01-09T21:54:53.146Z,99743.94
2023-01-09T21:57:22.747Z,99748.41
2023-01-09T21:59:52.781Z,99753.66
2023-01-09T22:02:25.769Z,99755.47
2023-01-09T22:05:00.120Z,99757.31
2023-01-09T22:07:29.722Z,99764.31
2023-01-09T22:09:59.286Z,99768.63
2023-01-09T22:12:29.293Z,99768.63
2023-01-09T22:14:58.831Z,99783.50
2023-01-09T22:17:31.113Z,99787.84
2023-01-09T22:20:01.105Z,99786.91
2023-01-09T22:22:30.678Z,99788.66
2023-01-09T22:25:01.432Z,99798.31
2023-01-09T22:27:30.991Z,99810.50
2023-01-09T22:30:00.651Z,99812.22
2023-01-09T22:32:32.859Z,99816.56
2023-01-09T22:35:02.437Z,99821.81
2023-01-09T22:37:31.984Z,99826.28
2023-01-09T22:40:01.565Z,99840.28
2023-01-09T22:42:31.188Z,99839.44
2023-01-09T22:45:00.791Z,99841.16
2023-01-09T22:47:33.368Z,99853.38
2023-01-09T22:50:02.957Z,99858.66
2023-01-09T22:52:32.511Z,99861.28
2023-01-09T22:55:02.162Z,99868.31
2023-01-09T22:57:31.764Z,99879.69
2023-01-09T23:00:01.498Z,99883.25
2023-01-09T23:02:33.887Z,99888.56
2023-01-09T23:05:03.751Z,99894.69
2023-01-09T23:07:33.359Z,99892.16
2023-01-09T23:10:03.633Z,99898.34
2023-01-09T23:12:33.301Z,99903.66
2023-01-09T23:15:03.007Z,99908.03
2023-01-09T23:17:35.174Z,99916.91
2023-01-09T23:20:04.747Z,99920.50
2023-01-09T23:22:34.331Z,99923.97
2023-01-09T23:25:03.967Z,99948.50
2023-01-09T23:27:33.514Z,99934.50
2023-01-09T23:30:03.058Z,99945.88
2023-01-09T23:32:35.250Z,99950.28
2023-01-09T23:35:05.339Z,99960.75
2023-01-09T23:37:34.943Z,99969.53
2023-01-09T23:40:04.566Z,99966.00
2023-01-09T23:42:46.582Z,99968.63
2023-01-09T23:45:16.230Z,99982.75
2023-01-09T23:47:48.429Z,99982.00
2023-01-09T23:50:18.269Z,99987.34
2023-01-09T23:52:47.843Z,99979.63
2023-01-09T23:55:17.513Z,99991.03
2023-01-09T23:57:47.059Z,99996.41
